Home Music Articles Forums Blog Chat More...      
ramonaji
(Ramona)


Member Since: Sunday, June 01 2008 @ 02:12 PM CDT
Contact: send a note
Homepage: http://www.youtube.com/user/ramonaji08
Location: Tucson, Arizona United States
Song Comments: 2057
Song Votes: 82
Forum Posts: 6
Weekly Points: 0.00
Total Points: 2116.95
Bio:
"The Atman (Self) creates endless dramas in it's non-being."

Glad to meet ya.

Hey, if you're bored, subscribe to my songs in iTunes under Naaji Noise! It's free... and good for your health!
ramonaji's Songs (102)
Date Title Rating Hits Genre Last Comment Status
10.15.13 Say Bye Bye  (---) 3204 (36) Alternative Rock 01.30.16 Active
08.14.13 Sorry For You  (---) 1788 (23) Electropop 10.18.13 Active
05.06.12 Nobody Knows You (Italian Dance Remix by Andy Fox!)  (---) 2871 (41) Dance-Club 10.16.13 Active
04.01.12 Saving You From Yourself  (---) 2057 (25) Pop (Alternative) 08.03.12 Active
11.17.11 Alternate Reality  (---) 2590 (42) Alternative Rock 04.03.12 Active
09.11.11 Nobody Knows You  (---) 2630 (41) Pop (Alternative) 04.03.12 Active
06.19.11 Always Leaves Me Wanting More  (---) 2992 (70) Pop (Alternative) 04.03.12 Active
04.03.11 Someday  (---) 2479 (23) Alternative Rock 06.18.11 Active
02.26.11 No Talkin' Anymore  (---) 2590 (33) NUjazz 10.24.12 Active
01.03.11 Love is the Only Thing  (---) 3222 (51) Jazz Fusion 06.26.11 Active
12.25.10 Dark City Streets  (---) 2813 (33) Alternative Rock 01.26.11 Active
11.11.10 Make Me Fall  (---) 2454 (71) Alternative Rock 12.25.10 Active
09.24.10 MOVE YOUR BODY  (---) 2371 (23) Dance-Club 11.04.10 Active
07.30.10 Lights, Camera, Action (DJ Andy Foxx remix!)  (---) 2486 (37) Dance-Club 12.13.10 Active
06.27.10 Je Suis Une Fille 7.75 (3) 2710 (45) Dance-Club 10.01.10 Active
06.01.10 I'll Always Be Your Fool (w/Rosalinda) 8.06 (4) 1989 (22) Jazz Fusion 10.18.10 Active
05.12.10 You're A Disease 6.50 (2) 2461 (43) Pop (Alternative) 06.29.10 Active
04.14.10 Tea Party 8.50 (3) 3133 (73) Indie Rock 09.14.11 Active
04.03.10 MORE 7.25 (2) 2388 (20) Alternative Rock 05.16.10 Active
03.23.10 Not the Marrying Kind 7.63 (2) 3047 (44) Alternative Rock 10.01.10 Active
03.15.10 Pretend That You Love Me 0.00 (0) 2308 (29) Jazz Fusion 03.25.10 Active
03.02.10 Tell Your Other Girlfriend 9.15 (5) 3140 (61) Alternative Rock 09.25.12 Active
01.31.10 What I Used to Be 6.63 (2) 2205 (24) Electropop 03.29.12 Active
01.21.10 Nobody Asked Me 10.00 (1) 2147 (20) Electropop 07.06.10 Active
01.03.10 We Play Games 7.17 (3) 2132 (28) Electropop 03.04.10 Active
12.21.09 Chase You! 6.67 (3) 2821 (57) Alternative Rock 01.27.11 Active
12.03.09 Your Pleasure Centers 9.33 (3) 2241 (27) Pop (Alternative) 11.10.11 Active
11.29.09 Changing Your Mind 8.88 (2) 2277 (18) Alternative Rock 12.28.09 Active
11.06.09 You Think You've Got it All? 8.17 (3) 2727 (37) Alternative Rock 08.11.10 Active
10.24.09 Oooooooh, Sad Lover 8.75 (2) 2285 (19) Alternative Rock 12.28.09 Active
10.15.09 I Told Ya 8.88 (2) 2365 (14) Electropop 10.28.09 Active
10.05.09 Sitting Here (Waiting) 9.33 (3) 2592 (20) Electropop 10.23.09 Active
09.26.09 Liar, Liar! 7.25 (3) 2307 (14) Electropop 10.23.09 Active
09.08.09 All About You 8.75 (2) 1928 (17) Jazz Fusion 04.07.10 Active
09.02.09 You Want 9.13 (2) 2866 (19) Dance-Club 10.23.09 Active
08.23.09 Just Be Honest? 8.88 (2) 2109 (19) Electropop 10.23.09 Active
08.12.09 Take a Kiss 8.00 (3) 2303 (22) Pop (Alternative) 10.23.09 Active
08.03.09 Love Took Over My Sight 9.08 (3) 2540 (18) Pop (Alternative) 10.23.09 Active
07.25.09 Lights, Camera, Action, Money! 9.00 (2) 2796 (31) Pop (Alternative) 11.10.11 Active
07.16.09 Do You Want to FEEL? 7.50 (3) 2194 (16) Electropop 10.23.09 Active
07.12.09 No Goodbyes 8.75 (2) 2785 (15) NUjazz 10.23.09 Active
07.05.09 Love Triangle 9.25 (2) 2331 (19) Electropop 11.01.10 Active
07.01.09 Your Lips Are Given to Me 6.63 (2) 2261 (11) Alternative Rock 07.12.09 Active
06.24.09 Just Trouble 6.75 (2) 2335 (19) Blues (traditional) 07.12.09 Active
06.21.09 I'll Take a Pill if it Will Make Me Forget You 10.00 (1) 2194 (16) Electropop 07.12.09 Active
06.17.09 How Did This Happen? 10.00 (1) 2440 (23) Electropop 08.08.09 Active
06.11.09 Don't Hate Me 7.75 (3) 2396 (16) Pop (mainstream) 07.20.09 Active
06.05.09 I'm Here and Then I'm GONE 10.00 (2) 2242 (17) Pop (Alternative) 11.10.11 Active
05.28.09 If You Are Cruel, Why Don't You Just Admit It? 6.63 (2) 2706 (26) Alternative Rock 06.04.09 Active
05.24.09 Little Deaths 9.33 (3) 1949 (19) Pop (Alternative) 06.08.09 Active
05.18.09 Remember 10.00 (3) 2607 (26) House 06.22.11 Active
05.14.09 SMASH! 9.63 (4) 3043 (20) Dance-Club 12.28.09 Active
05.05.09 I Used To Talk About Pythagoras 10.00 (3) 2629 (21) Dance-Club 03.07.10 Active
04.26.09 Nobody Thinks About Love 8.44 (4) 2179 (19) Electropop 06.08.09 Active
04.16.09 I Hate Cliches! 10.00 (1) 2365 (13) Experimental 05.19.09 Active
04.05.09 Nice To Meetcha (again) 9.25 (3) 2550 (18) Progressive Rock 05.19.09 Active
04.01.09 I Saw Your Face 10.00 (2) 2164 (15) Alternative Rock 06.08.09 Active
03.26.09 The Difference Between Them and Me 10.00 (2) 2035 (9) Dance-Club 06.08.09 Active
03.19.09 Strange and Amazing 9.17 (3) 1969 (4) Pop (Alternative) 05.19.09 Active
03.16.09 Take a Look at Yourself 9.63 (4) 2004 (13) Jazz Fusion 08.18.09 Active
03.15.09 Find Someone to Love (Body Shots) 9.33 (3) 2207 (9) Alternative Rock 05.19.09 Active
03.11.09 Imagine Me Without You 7.56 (4) 1942 (9) Electropop 03.05.10 Active
03.05.09 Wreck 8.75 (2) 1878 (10) Electropop 03.08.09 Active
03.03.09 To Seduce 8.75 (2) 1716 (5) Electropop 07.09.09 Active
03.01.09 I Am Your Fool 8.38 (4) 1765 (7) Electropop 05.19.09 Active
02.28.09 Rhythm of Desire 9.00 (2) 1606 (2) Jazz Fusion 03.01.09 Active
02.25.09 Secret of Our Hidden Hearts 9.38 (2) 1770 (3) Pop (Alternative) 02.25.09 Active
02.22.09 Nananananananana 8.75 (2) 2872 (9) Alternative Rock 03.27.10 Active
02.19.09 A Better Place (W/Yohmar and Lunatrick) 0.00 (0) 1956 (9) Dance-Club 02.24.09 Active
02.17.09 New York 0.00 (0) 1783 (9) Dance-Club 04.08.09 Active
02.15.09 Wasted 9.25 (3) 2156 (11) Alternative Rock 04.17.09 Active
02.12.09 It's Been a Long Time 10.00 (2) 2693 (12) Ethnic-International 08.29.09 Active
02.09.09 Rise Up (ode to Timbaland) (That's right, Timbaland!) 10.00 (1) 1926 (4) Hip Hop-Rap 02.11.09 Active
02.08.09 Hot Floor (W/LunaTrick and Yohmar) 9.00 (2) 2486 (8) House 10.09.09 Active
02.08.09 Entwined (w/ Luna Trick) 9.17 (3) 2012 (7) Downtempo 02.20.09 Active
02.01.09 Get Freaky! 9.13 (2) 2177 (15) Dance-Club 04.04.09 Active
01.29.09 The Place in Your Heart 9.00 (2) 1760 (4) Jazz Fusion 01.31.09 Active
01.28.09 Take Me Down to the Dungeon (w/Luna Trick) 9.00 (2) 2521 (9) Alternative Rock 05.07.09 Active
01.25.09 Dance Like a Man 2.25 (1) 1981 (4) Dance-Club 01.28.09 Active
01.18.09 Hold Me Tight (my German side comes out) 0.00 (0) 2185 (9) Dance-Club 04.03.09 Active
01.13.09 Blue Planet (with BorisLuxx) 4.50 (1) 1751 (5) Electropop 05.23.09 Active
01.10.09 Who Are You? (Advaita Vedanta in Dance) 10.00 (1) 2066 (5) Dance-Club 01.24.09 Active
01.08.09 Fall From Grace (with Boris Luxx) (originally Robonaut) 9.75 (3) 1757 (7) Electropop 01.09.09 Active
01.07.09 We Should've Known (It Would Come to This) w/ Boris Luxx 10.00 (1) 1932 (7) Electropop 01.08.09 Active
01.07.09 Obama is TAKING OVER~ 6.63 (2) 1855 (12) Pop (Alternative) 06.17.09 Active
01.05.09 Could You Do it? 8.88 (2) 1943 (9) Experimental 01.06.09 Active
01.04.09 Are You Gonna Tell Me You Love Me? 7.25 (3) 2542 (8) Alternative Rock 04.02.09 Active
01.01.09 Take My Heart (with Luna Trick) 8.83 (3) 2147 (7) Rock 01.03.09 Active
12.28.08 You'll Never Know 8.88 (2) 2153 (4) Dance-Club 01.02.09 Active
12.25.08 Short Leash 0.00 (0) 1841 (5) Dance-Club 12.30.08 Active
12.25.08 I Wanna Grow Up 3.00 (1) 1846 (4) Experimental 12.27.08 Active
12.21.08 How I Wish 0.00 (0) 1581 (3) Pop (Alternative) 12.27.08 Active
12.18.08 We Love Being Together 9.00 (2) 1965 (6) Pop (mainstream) 12.19.08 Active
12.14.08 Where are you? 9.13 (2) 1698 (4) Other 12.15.08 Active
12.11.08 Dark Places 9.06 (4) 2193 (13) Experimental 12.03.09 Active
12.10.08 Shiva, the Secret Self 8.75 (2) 1969 (8) Ethnic-International 09.11.10 Active
12.07.08 How Did You Get Here? 0.00 (0) 1757 (5) Hip Hop-Rap 12.15.08 Active
11.26.08 Knocking Sox 0.00 (0) 1987 (3) Dance-Club 01.25.09 Active
11.24.08 Too Hot to Be a Stalker! 0.00 (0) 1709 (3) Dance-Club 01.08.09 Active
11.23.08 Parts 0.00 (0) 1510 (1) Pop (Alternative) 12.27.08 Active
11.22.08 Cause I Love You 0.00 (0) 1921 (7) Pop (Alternative) 11.10.11 Active
11.12.08 These Five Fingers 0.00 (0) 2100 (4) Dance-Club 10.26.11 Active
Favorite Songs (1000)
Title Artist Date Genre
Where Did The Sun Go with Lokka Garni 05.19.17 Electropop
Nuclear Winter: (re)magination Challenge particledots 05.13.17 Cinematic Soundtrack
Invention No. 53 paul f. page 05.04.17 Baroque
Too Hip to Trip Daugrin 04.12.17 Trip Hop
Worry Is a Pile Of Noise Little_Hooligan 08.13.15 Funk
Hands Tied Little_Hooligan 07.09.15 Electropop
Hands Tied Little_Hooligan 07.09.15 Electropop
One Hundred Forty-Two paul f. page 02.25.15 Piano
In The Face Of Decision feat.Lisa Hawbaker Garni 02.17.15 Pop (Alternative)
A Gift From Mexico with Davisamerica2, Sisters and Richard and Dan Marris DWL 02.11.15 Acoustic
The Prayer thetiler 02.10.15 Fingerstyle Guitar
LEAST GREAT GENERATION PETERCATHAM 02.01.15 Indie Rock
moth on a leaf egobandit 01.23.15 Art Rock
Surge XMaramena 01.17.15 Electronic
Giraffe in Disguise KyasheMusic 12.31.14 Jazz (instrumental)
Cantabile Sacra FOUR paul f. page 12.30.14 Classical
Cantabile Sacra Two paul f. page 12.20.14 Classical
Bad Chick w/Lokka Garni 10.28.14 Pop (mainstream)
Rabbit Line Observes Crows Daugrin 10.14.14 Experimental
One Hundred Twenty-Seven paul f. page 10.06.14 Piano
I'm Not Alone W/ Garni LisaHawbaker 10.01.14 Gothic Rock
Under My Skin w/Ravens Garni 06.13.14 Pop (mainstream)
Night of Passion w/Lokka Garni 03.14.14 Pop (Alternative)
Fading w/Raven Garni 02.24.14 Gothic Rock
Decent Girl lengold 02.24.14 Other
GUITARMAN KCsGROOVE 02.22.14 Rock
The Blue w/Lokka Garni 02.18.14 Pop (mainstream)
4 D Glasses Daugrin 02.08.14 Experimental
Harmonic Motion Garni 12.09.13 Electronic
Heart Song magnatone 11.21.13 Piano
Ninety-Three paul f. page 11.12.13 Piano
Road to Recovery Garni 11.10.13 Cinematic Soundtrack
Aneurysm faultysynapse 10.17.13 Rock
Rumspringa/ Mr. Fab Sax Daugrin 10.17.13 Cinematic Soundtrack
Colossal Seed Parichayaka 10.17.13 Electronic
Razorblade Bent_Axis 10.15.13 Rock
Unpromised Land GermanGhost 10.14.13 Indie Rock
Ghost Station Narad 10.14.13 Ambient
Got Me Saying (Whitey's On The Moon) danmurrell 10.14.13 Dance-Club
Tell Me About It [Vocals] New Arrangement Alimar 10.11.13 Pop (mainstream)
Advance! (w/Sam & Ego) IbotenicParadigm 10.11.13 Rock
Poisonous guygrooves 10.10.13 Open Collaborations
Hopper's Got Dance 1rwhite1 10.10.13 NUjazz
DON'T BE LATE KCsGROOVE 10.09.13 Swing
Introspective heart kwf 10.08.13 Progressive Rock
Share It (again) grah3am 10.06.13 Pop (Alternative)
Nultiply Eftos 10.03.13 Trance
"Adagio" Theme, Variation and Development [6 min+ v3.0] WIP Alimar 09.23.13 Classical
Don't Wish Your Life Away (H4 Demo) alackbass 09.22.13 Acoustic
Abyss (w SammyDix) IbotenicParadigm 09.21.13 Rock
Rockin' Big Sister Daugrin 09.19.13 Rock & Roll
The Booty Biz Sir Bass 09.18.13 Hip Hop-Rap
Overdrive paul f. page 09.09.13 Piano
Sleep (w JScott and Alannah) Alannah 09.02.13 Other
How Ya Doing, How Ya Feel Sir Bass 08.30.13 Alternative Rock
BAD PLUMBING BLUES (w Grathy) KCsGROOVE 08.27.13 Blues (contemporary)
Mood Music Garni 08.27.13 Piano
Munchhausen by Proxy Eftos 08.27.13 Drum n Bass
Go Takumi, Go! tempie 08.26.13 Pop (Alternative)
Lack of You MakenaMonk 08.21.13 Pop (Alternative)
I feed you my love ckrohm 08.16.13 Electronic
YearBook (vicmix) davisamerica 08.15.13 Art Rock
Thank You antonfosh 08.15.13 Pop (mainstream)
Minor players in the Theatre of Hate groovsh8ker 08.14.13 Alternative Rock
Long Way To Go PeterB7858 08.14.13 Acoustic
Buzz O Nerv O MakenaMonk 08.13.13 Experimental
rolling clouds kingkenny 08.11.13 Alternative Rock
After August notsosweet 08.11.13 Piano
only too much egobandit 08.11.13 Art Rock
A DAY IN JULY KCsGROOVE 08.08.13 Rock
Doxey Fields grah3am 08.08.13 Reggae
Your Pride w/Sasha Garni 08.05.13 Pop (Alternative)
Why? grah3am 07.31.13 Pop (Alternative)
Unity Garni 07.02.13 Pop (mainstream)
Tout de Suite grah3am 07.01.13 Pop (Alternative)
sleeper tokai 07.01.13 Art Rock
Eighty-Three paul f. page 06.29.13 Piano
Desert Wails ft CharlyDeeCynthius Garni 06.27.13 Rock (instrumental)
Beautiful Daydream lavalamp 06.23.13 Alternative Rock
Eighty paul f. page 06.19.13 Piano
Wave Goodbye magnatone 06.12.13 Piano
Folsom Prison Blues thetiler 06.12.13 Folk (contemporary)
Close to the Bone by Jerry Quinn alackbass 06.10.13 Rock & Roll
Intoxication (Impulsound Remix) Funspreader 06.10.13 Trance
electric magnetic/Sir Bass tokai 06.10.13 Hip Hop-Rap
Hong Kong Gem Chase (The Soundtrack) w/Retrotrend Garni 06.03.13 Pop (Alternative)
Seventy-Eight paul f. page 05.29.13 Piano
India flute jordifiol 05.27.13 Spoken Word-Poetry
When Loving Is One-sided, Music by Bob Rodgers Char 05.27.13 Ballad
Adagio in G minor-Albinoni MidiOrleans 05.24.13 Baroque
Your Life Garni 05.04.13 Pop (Alternative)
friday ste 03.28.13 Pop (Alternative)
I Never Knew You w/Ramonaji Garni 03.23.13 Inspirational (contemporary)
The Game rok41 03.23.13 Rock
The Time of Morris Men Again with Kingbee, Moviz, Bob Rodgers and Stevel, DWL 03.17.13 Folk (traditional)
Seventy paul f. page 03.15.13 Piano
Humanity in Disguise (Dubstep Mix) Garni 03.15.13 Industrial
Spill The Grain/Grain House Drag Daugrin 03.13.13 Experimental
Addiction w/Stephanie Garni 03.07.13 Pop (Alternative)
Street People (Anomalous w/Alannah) Alannah 03.02.13 Rock
Your Love is Toxic w/Lisa H Garni 01.23.13 Pop (mainstream)
Coming Home To You w/Cuddabrown Garni 01.08.13 Pop (mainstream)
My Own Little World Garni 12.17.12 Pop (Alternative)
You're Not There Garni 12.04.12 Pop (mainstream)
Seventy-Four paul f. page 11.30.12 Piano
Sex More Sex Sir Bass 10.26.12 Rhythm and Blues
Before it's too Late (Garni + Alannah) Alannah 09.22.12 Other
Dance ShadowofNine 09.06.12 Dance-Club
Why Do You Hide? Garni 09.03.12 Pop (mainstream)
Lost Boy Loob 08.28.12 Country-Western
Sixty-Six paul f. page 08.02.12 Piano
Stronger Garni 08.01.12 Pop (Alternative)
B E A U T I F U L lengold 07.30.12 Other
Twenty-Nine paul f. page 07.25.12 Piano
The Dark Road Garni 07.03.12 Pop (Alternative)
TFT Jam karmicfreak 07.01.12 Funk
There'll Be No Loving by Jerry_Quinn w/ Ryan, Dad, ktb, gadzooks, scofugate alackbass 06.29.12 Country-Western
Silence Of Darkness w/ Vic Holman Symphony101 06.28.12 Alternative Rock
Blackwater (by Tokai) ktb 06.25.12 Rock (instrumental)
Bourgeoisie In America (Hybrid) Sir Bass 06.25.12 Hip Hop-Rap
Secret Whisper Garni 06.25.12 Piano
Show Me Some Time lavalamp 06.24.12 Alternative Rock
Never Leave The Floor Daniel 06.22.12 Electropop
IfIWereHigh Drew Kopr 06.21.12 Dub
Dawn's Eyes ... a sketch SCJohnson59 06.21.12 Rhythm and Blues
Listen to the sound..... Soundhound 06.20.12 Funk
In Difference borisluxx 06.07.12 Electronic
Shine Bright (For my woman) Garni 06.07.12 Pop Classical
rue raphael mahler24 06.06.12 Trip Hop
Fifty-One paul f. page 06.04.12 Piano
On the Dro DarienLHernandez 06.03.12 Acoustic
Slapback (w/Vic Holman) lavalamp 06.03.12 Rock (instrumental)
(An Untitled) Intro BirdmanWayne94 06.01.12 Fingerstyle Guitar
Let's Dance (in the spotlight) kaidavis 05.31.12 Pop (mainstream)
A Nightime of Tears Garni 05.27.12 Gothic Rock
Fourteen paul f. page 05.26.12 Piano
Travelling Daniel 05.24.12 Trip Hop
"Ancient Tongues 2" Laymedown remix abzwork 05.23.12 NUjazz
Murder/Suicide (1 Track H4 Demo) alackbass 05.18.12 Acoustic
High School Crush Sir Bass 05.18.12 Rock
Lion of Fire Narad 05.17.12 Alternative Rock
Just a Girl Outtaorbit 05.11.12 Rock
I'll Do What I Like (w/ ParticleDots) michael2 05.11.12 Shoegazer
Whatcha Wanna Do Now....FT.. Patrica Edwards Soundhound 05.11.12 Dancehall
Delirium Poema II mikkinylund 05.10.12 Indie Rock
Black Kat Three Cat Clem 05.09.12 Blues (contemporary)
Speak Softly (Mix #2) Garni 05.09.12 Pop (Alternative)
High Head Sir Bass 05.08.12 Rock
The Bell Is Ringing bigdaddycee 05.06.12 Inspirational (contemporary)
Unhappy Anniversary jie 05.06.12 Acoustic
Time and time VicDiesel 05.05.12 Downtempo
Lovely Summertime Moviz 05.05.12 Pop (mainstream)
New Passport (drum audition) needs leads Loob 05.05.12 Progressive Rock
TestTubed Drew Kopr 05.05.12 Jazz Fusion
Out Of Control paul f. page 05.04.12 Piano
Bliss XMaramena 05.03.12 Trance
You Can't Daniel 05.03.12 Pop (Alternative)
The Triple Man Les_Kloo 05.01.12 Progressive Rock
why won't you be my girl that80sboy 05.01.12 Pop (Alternative)
Take Me To Your Heaven Chuchikin 05.01.12 Dance-Club
Speak Softly Garni 04.30.12 Open Collaborations
SlowDownForMe....Baby Soundhound 04.27.12 Rhythm and Blues
Walk on Water lavalamp 04.27.12 Alternative Rock
F the Stupid Doors mikkinylund 04.08.12 Rock
The Grunge yohmar 04.04.12 Jazz Fusion
You...&...I Soundhound 04.04.12 Jazz Fusion
New Days Daniel 04.03.12 Electronic
It is you, but still not you mikkinylund 03.31.12 Pop (Alternative)
Euro House ShadowofNine 03.31.12 Dance-Club
Figure 8 Maximum_Lux 03.30.12 Electropop
Everything Changes w/ strangedream & rok41 Sigmund 03.30.12 Pop (Alternative)
Desert Night Walk kassia 03.26.12 Other
not that it matters to me that80sboy 03.26.12 Pop (Alternative)
Art mikkinylund 03.24.12 Pop (Alternative)
Postcard (Upscale Version) Daugrin 03.24.12 Jazz Fusion
Slip of the Tongue (w. hackneybloke, Loob & Philip18) PeterB7858 03.24.12 Acoustic Rock
Walk mikkinylund 03.24.12 Pop (Alternative)
Your Own Worst Enemy alackbass 03.24.12 Folk (contemporary)
Your Own Worst Enemy alackbass 03.24.12 Folk (contemporary)
Wild Child Sir Bass 03.20.12 Alternative Rock
_'BeBop Groove'_ Live TvRicky 03.19.12 Jazz (instrumental)
Bad habits KCsGROOVE 03.17.12 Rock
Extra Hard.... Soundhound 03.16.12 Rhythm and Blues
Postcard from Daug Daugrin 03.14.12 Jazz Fusion
$haman Sir Bass 03.13.12 Indie Rock
The Room vegetal777 03.11.12 Dance-Club
Unrequited Love Songwriterz 03.26.12 Electropop
SOMEBODY ELSE CIASM_ZENABI_ 02.19.12 Alternative Rock
What Can You Do? Garni 02.15.12 Pop (mainstream)
What Can You Do? Garni 02.15.12 Pop (mainstream)
What Can You Do? Garni 02.15.12 Pop (mainstream)
Lament de L'Amour kassia 02.11.12 Piano
Shoo Fly Pie SylviaD 02.10.12 Jazz (instrumental)
Found Your Peace (of mind) Bass3x 02.10.12 Jazz (vocal)
WONDERING KCsGROOVE 02.09.12 Rock
I'll Catch You If You Fall Garni 02.08.12 Pop (mainstream)
DINAH michaeljayklein 02.05.12 Other
"I'm A Rock and Rolla" Rock/Hip Hop Sir Bass 02.03.12 Rock
Nr One - Funky House (IPAD/Garageband) kalistavros 01.27.12 House
Wasting My Time lavalamp 01.27.12 Alternative Rock
Access Granted (Little Ditty) Cheese Pantz 01.26.12 Rock (instrumental)
three basses jordifiol 01.26.12 Jazz (instrumental)
Freaky Fame Sir Bass 01.24.12 Pop (Alternative)
This One That I Adore (with Roxylee,Jiguma,Scofugate,& Paul Page) davisamerica2 01.22.12 Ballad
You Know feat. Aelyn (FineChinaMix2012) chinaman2 01.22.12 Dance-Club
Two Monkeys In Winter Bass3x 01.21.12 Jazz (instrumental)
Quinary: Whisper (Interlude) Abraxas 01.19.12 Electropop
4am (An ode to insomniacs) Garni 01.17.12 Electronic
Division vegetal777 01.08.12 Dance-Club
The Party's Over Corporal Beef 01.08.12 Electropop
Intangible w Reggie Pole, improved version 2 Char 01.04.12 Rock
Sort of a Positive Song for Kind of Happy People mikkinylund 01.04.12 Pop (Alternative)
LOSER II (Alannah with Snippets of Scofugate sprinkled in) Alannah 01.02.12 Other
Nerd Sir Bass 01.02.12 Pop (Alternative)
Streaks of Blue alackbass 12.27.11 Blues (traditional)
Suite For Toy Guitar Cori Ander 12.13.11 Fingerstyle Guitar
Ive Got This Feeling (Deep Inside Of Me) Garni 12.11.11 Electronic
Blizzard JetSmith88 12.10.11 House
Party In Heaven Sir Bass 12.06.11 Hip Hop-Rap
Party In Heaven Sir Bass 12.06.11 Hip Hop-Rap
Blind Love (Seeing Heart) - Orchestral Version magnatone 12.06.11 Pop Classical
Goo Goo Eyes (with APOD) five_extra_arms 12.05.11 Electronic
Song of X lavalamp 12.03.11 Alternative Rock
Sweat Siphon shavingronaldscar 11.27.11 Trance
Going For Re-Entry With Dr. Holly Goodhead artneuro 11.24.11 Rock
Ultra Garni 11.23.11 Pop (Alternative)
As Much As I Try to Relax Maximum_Lux 11.23.11 Electronic
A Life In My Arms Aemyn 11.22.11 Pop (Alternative)
Secondary: Land of Ordinary Things Abraxas 11.22.11 Electropop
Good Wife five_extra_arms 11.21.11 Alternative Rock
The Rose Within Mike_Lynn 11.19.11 Pop (Alternative)
Who's Gonna Love You? (with SISTERS) House Mix chinaman2 11.18.11 Dance-Club
after we had crossed the water particledots 11.17.11 Other
Blur Vic Holman 11.17.11 Alternative Rock
Dance End In Trance Skean 11.17.11 Electronic
Lonely Beach stevel 11.17.11 Pop (Alternative)
Feeling Free...(MJ Space Race) Soundhound 11.16.11 Jazz (instrumental)
Wreck lavalamp 11.16.11 Alternative Rock
This is the Love Silky5 11.15.11 Dance-Club
Don't Believe a Word (Freedom) mfwmiles 11.15.11 Pop (Alternative)
Promise You're Not Gonna Leave Relic67 11.12.11 Rock
Colorations Sir Bass 11.11.11 Pop (mainstream)
Southern Belle finkeldink 11.10.11 Hard Rock
Porno Like Money Sir Bass 11.10.11 Hip Hop-Rap
Sowing Season (Cover) jk1986 11.09.11 Acoustic
Five Minutes yohmar 11.07.11 Easy Listening
Ambivalent Feelings - Baroque Concerto Philos60 11.04.11 Baroque
Drag Queen Anthem borisluxx 10.15.11 Dance-Club
Whom took our L-Train? mikkinylund 10.13.11 Pop (Alternative)
The Cat Came Back alackbass 10.08.11 Children's Music
Forbidden Fruit w/zeFIF Garni 10.03.11 Pop (Alternative)
Peace ShadowofNine 09.28.11 New Age
Topless Dancer feat Andy Wigzell take 2 SCJohnson59 09.28.11 Funk
String quartet: After work, Late at night andreasvanharen 09.28.11 Romantic
It Was All in a Daydream I Had (w/ Five Extra Arms) lavalamp 09.27.11 Alternative Rock
Guitars Visit Venezuela Philip18 09.25.11 Latin Jazz
Digital Kingdom SunD3viL 09.24.11 Electropop
Prepare Vinylhack 09.24.11 Dance-Club
Herr Luxx borisluxx 09.23.11 Dance-Club
Watch The Sun Garni 09.23.11 Pop (Alternative)
Trolls and Humans mikkinylund 09.20.11 Alternative Rock
my girlfriend is an alien that80sboy 09.20.11 Pop (Alternative)
The Sun Goes Down On You stevel 09.20.11 Alternative Rock
Règne beau EricM 09.20.11 Alternative Rock
Wool the Eye (sons of hypnos w/dustwood) ageofthedeathtree 09.15.11 Alternative Rock
The Chase Maximum_Lux 09.15.11 Electronic
Cold Textures Garni 09.15.11 Film Scoring
Our Last Night Together CrazeeFlootGrrl 09.14.11 Dance-Club
There Will Come A Time Vic Holman 09.13.11 Alternative Rock
Into The Night eleveneyes 09.12.11 Pop (Alternative)
memory gadzooks 09.12.11 Acoustic
past snapshots made with future cameras particledots 09.11.11 Electronic
EXECUTIONER..... Soundhound 09.10.11 Art Rock
Las Vacas VicDiesel 09.10.11 Renaissance
Electric Lotus Meta4 09.10.11 Breakbeat
Elite Polka/Septic Truck Part II Daugrin 09.09.11 Experimental
Little Punk Thing Please mfwmiles 09.08.11 Punk-Grunge
To Deny Red Les_Kloo 09.07.11 Progressive Rock
The Bitterness Crash Control 09.06.11 Hard Rock
omkara bud 09.05.11 Ethnic-International
Guitars on a Languid Afternoon (with Philip18) PeterB7858 09.03.11 Smooth Jazz
Little Miss Muffet (Has the Blues) alackbass 09.02.11 Children's Music
To Dream of Stars (An Imaginary Journey Mix) Reinholt56 09.02.11 Ambient
To Dream of Stars (An Imaginary Journey Mix) Reinholt56 09.02.11 Ambient
Shine Kicbal 08.31.11 Rock
waking up bibanova 09.07.11 Alternative Rock
How Can I Know? papag 08.27.11 Other
GPS Review Doadars Uncle 08.25.11 Rock
A Holy Goat came down the river in a Funky Boat mikkinylund 08.22.11 Pop (Alternative)
Black Rose borisluxx 08.21.11 Pop (Alternative)
riots tokai 08.20.11 Political
Troll Dance mikkinylund 08.20.11 Pop (Alternative)
could be the last one egobandit 08.19.11 Art Rock
Set Us Free w/Angela Hope Garni 08.17.11 Easy Listening
Breathe gator4040 08.09.11 Alternative Rock
No Dancing Please with cchaplin lengold 08.01.11 Other
Vancouver lavalamp 07.30.11 Alternative Rock
One Small Moment w/Alannah Garni 07.20.11 Ballad
Ionosphere Garni 07.03.11 Dance-Club
BURNING SISTERS 07.01.11 Ambient
Take Heart My Love mfwmiles 07.01.11 Folk (contemporary)
Dewpoint Llarion 06.27.11 Jazz (instrumental)
Drag Your feet and Your face'll fall off Jarvoid 06.25.11 Country-Western
The Big Question is... MarkHolbrook 06.24.11 Rock
Put On Your Brave Face Vic Holman 06.23.11 Alternative Rock
First Breath In The Morning sloparts 06.23.11 Inspirational (contemporary)
R-U-N-Fluenced? FEEL 06.23.11 Psychedelic
Variations on John Comme Kisse Me Now H3nry 06.23.11 Renaissance
Destiny w/BorisLuxx Garni 06.23.11 Pop (Alternative)
Resemblance w/hackneybloke and loob sammydix 06.22.11 Rhythm and Blues
So Dark, So Cold Garni 06.21.11 Gothic Rock
crystal raw (sisters) rabittwhole 06.19.11 Other
Crystal (Sisters) davisamerica 06.19.11 Other
Concerto for Macjams (3, 4, 5, 6, 7, 8, 9-1/2 Movements) michaeljayklein 06.19.11 Classical
Sun Pixies borisluxx 06.18.11 Electronic
Silver Light lavalamp 06.18.11 Alternative Rock
Cannonball Rag neilh79 06.18.11 Bluegrass
Ajna (ReMix) Garni 06.17.11 Ambient
PAIN AND RISE by Lagusaya2 (Stan Loh) jibes 06.17.11 Inspirational (contemporary)
Hold On gadzooks 06.16.11 Smooth Jazz
Hold On gadzooks 06.16.11 Smooth Jazz
Blind Love (piano solo) magnatone 06.15.11 Piano
Gotta Feel Something..... Soundhound 06.14.11 Funk
Invitation To Dance paul f. page 06.12.11 Classical
Trails Of Despair Hourglass 06.18.11 Latin Pop
End of the Trouble w/steve hix hackneybloke 06.10.11 Acoustic
Just Be a Kid alackbass 06.09.11 Acoustic
Ink w/Donna Garni 06.09.11 Ballad
GO AHEAD AND RUN SISTERS 06.07.11 Dance-Club
I Gotta Have You w/Ramonaji Garni 06.01.11 Dance-Club
Blind Faith Garni 05.26.11 Gothic Rock
That Much Stronger alackbass 05.26.11 Acoustic
Light w/Arend Garni 05.17.11 Gothic Rock
Tattooed Scars (w/ Sigmund, Scofugate, Rok41) RAVENS 05.13.11 Alternative Rock
The Journey w/Ramonaji Garni 05.13.11 Electropop
Somebody's Sonnet #1 (In Progress) Garni 04.28.11 Piano
MUSIC WORCS yohmar 04.18.11 Other
Ionic Garni 04.18.11 Industrial
Change isn't always good guygrooves 04.12.11 Rock
Say NO (to Nuclear) Garni 04.06.11 Electronic
Dawn's Hiding Space, full orchestration SCJohnson59 04.05.11 Jazz (instrumental)
Unplanned Miracle Little_Hooligan 04.04.11 Dance-Club
Ambiguous Mood Maurice7 04.03.11 Trance
The Animals Are Watching rsorensen 04.03.11 Alternative Rock
We Know w/ scofugate, fasteddie, Relic67 and RAVENS neilh79 04.01.11 Acoustic Rock
Love Is Not For Ever..... Soundhound 03.31.11 Jazz (instrumental)
Smackdown 3 w/awigze & scofugate magnatone 03.27.11 Pop Orchestral
Secrets and Skeletons Vic Holman 03.26.11 Alternative Rock
What Made You Bad? Daniel 03.26.11 Rock
Tell Me lavalamp 03.25.11 Alternative Rock
First Flower of Spring yohmar 03.21.11 Electropop
K-A-R-M-A RAVENS 03.20.11 Rock
K-A-R-M-A RAVENS 03.20.11 Rock
Main Teri Tu Mera AcetyleneJukebox 03.19.11 Trip Hop
New Genesis michael2 03.18.11 Alternative Rock
TransSiberian Garni 03.18.11 Electronic
Where The Vacant Are... Daugrin 03.17.11 Experimental
Shame on You lavalamp 03.13.11 Alternative Rock
My Monument Garni 03.11.11 Gothic Rock
Is Tu Mo Ghra - I Love You Garni 03.08.11 Ballad
Is Tu Mo Ghra - I Love You Garni 03.08.11 Ballad
Maybe (Alannah + Kassia) Alannah 03.06.11 Ambient
ginga egobandit 03.03.11 Psychedelic
Snow Flake Sunset..... (Open Collaboration) Soundhound 02.28.11 Jazz (instrumental)
LOOKIN FOR LOVE w Jerry Freeman SISTERS 02.27.11 Pop (mainstream)
HAVE YOU EVER BEEN TO PORT-AU-PRINCE Lagusaya2 02.27.11 Folk-Rock
When You Sing With Me/ Clay Potts RosaLinda 02.27.11 Other
"Ike's Kids" Solo Andy Sax Daugrin 02.26.11 Jazz (instrumental)
Cats Come Out At Night w/BorisLuxx Garni 02.26.11 Pop (Alternative)
I'LL SEE YOU IN MY DREAMS harisahn 02.26.11 Jazz (vocal)
Sicker quicker apb 02.26.11 Pop (Alternative)
Confluence (Piano Solo) magnatone 02.08.11 Piano
What would the Tongue say w/BorisLuxx Garni 02.08.11 Electronic
MJCC11 Losing in Miami (davisamerica2 cover) lavalamp 02.06.11 Acoustic Rock
Coming To Terms Garni 01.27.11 Pop (Alternative)
COME ON IN MY KITCHEN/ w Pockbluesman TERRAPLANE 01.25.11 Blues (traditional)
Get It On (Feat Morgan102 & bigdaddycee) RAVENS 01.24.11 Rhythm and Blues
Rooster thetiler 01.16.11 Folk-Rock
Two Bitches Daugrin 01.15.11 Jazz Fusion
Don't Bully Me w/ D. Jorden, my students, Ryan, TERRAPLANE, ktb, & kevmikwa alackbass 01.14.11 Blues (traditional)
Sequence You Garni 01.11.11 Pop (Alternative)
lotr demo rabittwhole 01.10.11 Rock & Roll
Anthem ShadowofNine 01.07.11 Hard Rock
Superfast borisluxx 01.06.11 Dance-Club
Crazy In Love (W/Sisters) thetiler 01.06.11 Soft Rock-Adult Contemporary
Trend Am Trendin' yohmar 01.05.11 Other
Trend Am Trendin' yohmar 01.05.11 Other
Show and Tell Corporal Beef 01.03.11 Rock
A Nightingale Sang in Berkeley Square michaeljayklein 01.03.11 Easy Listening
Goldberg Variations (J.S. Bach) elektronix 01.03.11 Classical
molly magnificent that80sboy 01.03.11 Pop (Alternative)
molly magnificent that80sboy 01.03.11 Pop (Alternative)
Until I Say Goodbye antoniosimone 01.03.11 Piano
Still In The Dark starbombconnection 01.03.11 Pop (mainstream)
Henry (w/ Strangedream) tonestones 01.02.11 Indie Rock
A dwelling in the past apb 01.02.11 Pop (Alternative)
If I Go w/ Gaylen75, Sigmund, & kevmikwa alackbass 01.02.11 Hard Rock
Reflection Reinholt56 01.02.11 Ambient
New Year Drift mrattue 12.30.10 Ballad
It's Over michael2 12.30.10 Indie Rock
It's Over michael2 12.30.10 Indie Rock
Salt (with Scofugate and MR) Alannah 12.28.10 Alternative Rock
Salt (with Scofugate and MR) Alannah 12.28.10 Alternative Rock
rock and roll roots egobandit 12.28.10 Alternative Rock
rock and roll roots egobandit 12.28.10 Alternative Rock
Love, Love, Kill, Kill fasteddie 12.28.10 Hard Rock
swimming at christmas tmcfate 12.26.10 Alternative Rock
High Noon At The Oasis slackandsteel 12.25.10 Middle Eastern
groom of the stool woofer3 12.25.10 Alternative Rock
I Heard the Bells on Christmas Day Lennon714 12.25.10 Holiday
Falling Apart bronco 12.24.10 Acoustic Rock
Every Heart's Desire bigdaddycee 12.24.10 Pop (mainstream)
Christmas Eve Eve SCJohnson59 12.23.10 Jazz (instrumental)
Heilige Nacht Jarvoid 12.18.10 Other
In The Bleak Midwinter magnatone 12.18.10 Piano
Rip off 2.0 / by Ibstrat and a ridiculously good bass player friend of his scofugate 12.17.10 Jazz (instrumental)
Nitro-Gen borisluxx 12.17.10 Dance-Club
He Moves Through The Fair w Doug Somers & Caitlin Somers Char 12.17.10 Celtic
Suburban Girl, Why are You so Jive? tempie 12.13.10 Pop (Alternative)
Crickets kingkenny 12.13.10 Alternative Rock
Please Come Back To Stay PeterB7858 12.13.10 Acoustic
Please Come Back To Stay PeterB7858 12.13.10 Acoustic
No Bad Luck (with Christopher Chaplin/Julian Sims/Aisuluu) lengold 12.13.10 Alternative Rock
Riding On Stone Ponies Vic Holman 12.11.10 Rock
Forgive Me, I (w/ Symphony101, Sigmund, alackbass, kevmikwa) RAVENS 12.10.10 Rock
Forgive Me, I (w/ Symphony101, Sigmund, alackbass, kevmikwa) RAVENS 12.10.10 Rock
Sequenced borisluxx 12.10.10 Electronic
Gloria In Excelsis Deo (Angels We Have Heard On High) Dadai.2 12.09.10 Holiday
SEASONS GREETINGS! Daugrin 12.09.10 Jazz Fusion
move ste 12.08.10 Pop (Alternative)
Colfax Ave fasteddie 12.07.10 Alternative Rock
The Heights Relic67 12.01.10 Rock
A Farewell magnatone 11.30.10 Piano
Honk My Heart yohmar 11.27.10 Electronic
Once or Twice lavalamp 11.23.10 Acoustic
What Kind of Person Do I Want to Be w/D. Jorden, My Students, Rich, Andy, Mike, Bryn, & Bob alackbass 11.23.10 Rhythm and Blues
Vertigo w/ Gaylen75 Symphony101 11.20.10 New Age
Paris Is Callin' yohmar 11.20.10 Latin Jazz
Spoon Cut particle egobandit 11.19.10 Psychedelic
the dog was wake in me up? egobandit 11.14.10 Psychedelic
VIVID Vic Holman 11.14.10 Alternative Rock
Sensory Overload Sirens_Headband 11.13.10 Experimental
Flaunt It w/Gaylen Alackbass Awigze Paddler Kevmikwa Particledots Ryan Carrie71 11.17.10 Funk
YOU STILL HAUNT ME w Nigel Hardy SISTERS 11.12.10 Ballad
Looking Down the Barrel of a Gun (W/Beastie Boys) Skean 11.12.10 Hip Hop-Rap
Falling Asleep lavalamp 11.12.10 Alternative Rock
theory/Hackneybloke tokai 11.12.10 Art Rock
Without You* Dadai.2 11.11.10 Rock & Roll
world i know nevermine 11.11.10 Pop (Alternative)
Virgin Again Sir Bass 11.10.10 Alternative Rock
Go To Bed Cheeto 11.10.10 Alternative Rock
Tactual Sensation W/ jibes RosaLinda 11.09.10 Acoustic Rock
You're Scaring Me SCJohnson59 11.09.10 Open Collaborations
Loogaroo (w/ theDanseLeviathan, Scofugate) Alannah 11.07.10 Progressive Rock
In the End Garni 11.06.10 Soft Rock-Adult Contemporary
This life of mine. jibes 11.05.10 Rock & Roll
Gun Shy w/sloparts/jdholliday ktholliday 11.05.10 Blues (contemporary)
New Morning Gospel Daugrin 11.03.10 Gospel
Funhouse borisluxx 11.03.10 Dance-Club
Fall Rising magnatone 11.03.10 Pop Orchestral
The Awe Full Truth (LunaTrick) Char 11.01.10 Downtempo
Elsie's Philosophy Mute Albino 11.01.10 Progressive Rock
Not What She Seems (with Sigmund) rok41 10.24.10 Rock
Train Of Earthly Delight RosaLinda 10.24.10 Easy Listening
American Dream dave_b 10.22.10 Soft Rock-Adult Contemporary
Without A Trace (Echoroom) ted23 10.22.10 Alternative Rock
You Can Have Me Char 10.21.10 Jazz (vocal)
Darkness Garni 10.14.10 Industrial
Not a Love Song (w/ JDHolliday, Crissew & awigze) awigze 10.08.10 Rock
BOB AND THE REVOLUTION PRESENTS "MARRIED" Sir Bass 10.03.10 Reggae
Did Ya Know? RAVENS 09.29.10 Ballad
Three Little Words davezero 09.28.10 Alternative Rock
DOOR AZ HAM MitaMaleki 09.28.10 Pop (mainstream)
T.V. is our Guide davezero 09.27.10 Alternative Rock
Mey (Wine) dadgarus 09.25.10 Ethnic-International
BOB AND THE REVOLUTION PRESENTS "ROYALTY" Sir Bass 09.24.10 Alternative Rock
For The Last Time SCJohnson59 09.23.10 Open Collaborations
Tricks (Mystic Rhythm) W/teptep Skean 09.23.10 Downtempo
LMSR Sir Bass 09.22.10 Pop (Alternative)
Round in Circles lavalamp 09.20.10 Alternative Rock
Round in Circles lavalamp 09.20.10 Alternative Rock
'59 Superior (with Scofugate) Relic67 09.15.10 Rock (instrumental)
Fool To Let Me Go (Featuring RAVENS) fasteddie 09.14.10 Rock
September (w Vac and ktb) perceptualvortex 09.14.10 Rock (instrumental)
23 Lexington Avenue (100 BPM, 6 minutes of FUNK groove) DJ WERD 09.05.10 Funk
Tequila (No Hangover Mix) chinaman2 09.05.10 Pop (mainstream)
forever that80sboy 09.04.10 Pop (Alternative)
GLOWING IN THE DARK CIASM_ZENABI_ 09.02.10 Jazz Fusion
Easy Come, Easy Go w/Anne & paddler alackbass 08.29.10 Rhythm and Blues
Cupid Went Postal (Gaylen) ted23 08.24.10 Rock
BOB AND THE REVOLUTION PRESENTS "Knowledge of Self" Sir Bass 08.24.10 Reggae
Digital World borisluxx 08.24.10 Electropop
BOB AND THE REVOLUTION PRESENTS "SOUL MONEY" Sir Bass 08.20.10 Reggae
Love Me Baby rok41 08.18.10 Rock
If You (v1) papag 08.17.10 Pop (Alternative)
Tricky Wicked Woman (With Pink Freud) Angela_Hope 08.12.10 Heavy Metal
Mad Hatter jiguma 08.02.10 Rock
God's Favourite Son Cadman 08.01.10 Acoustic
Never Gonna Give You Up scaustrita 08.01.10 Pop (mainstream)
Never Gonna Give You Up scaustrita 08.01.10 Pop (mainstream)
Oasis In Your Palm (v1) TobinMueller 08.01.10 Jazz (instrumental)
never let you down mybravedesign 07.31.10 Indie Rock
Weather or Not? by Jim Bouchard w/awigze awigze 07.31.10 Jazz (instrumental)
TranceFriction ShadowofNine 07.31.10 Dance-Club
Her Painted Face/She Was Framed Vic Holman 07.29.10 Indie Rock
Dark Planet jgurner 07.29.10 Alternative Rock
Can't look at you dadgarus 07.29.10 Pop (mainstream)
Can't look at you dadgarus 07.29.10 Pop (mainstream)
Starlight (Space Oddysey Mix) chinaman2 07.29.10 Electropop
Huh? lavalamp 07.29.10 Alternative Rock
Ambiguity borisluxx 07.27.10 Dance-Club
coalition mybravedesign 07.25.10 Dance-Club
Forever, For Always RAVENS 07.25.10 Ballad
Bitch Slapped fasteddie 07.24.10 Hard Rock
In Your Eyes with JDHolliday speedonl 07.18.10 Acoustic Rock
Bad Experienced (a Ivano Fossati) CharlyDeeCynthius 07.15.10 Pop Orchestral
The one thoddi 07.12.10 Soul
Them Pickers, Grinners, Losers, Winners (Ain't nothin' hotter than Texas) sloparts 07.12.10 Country-Western
Void Magnetic borisluxx 07.12.10 Dance-Club
Not This Time (featuring KRILLE) claypotts 07.12.10 Blues (contemporary)
Texas Jam Sampler 1 MarkHolbrook 07.11.10 Other
Mystical Journeys Through Strawberry Jam Diviner 07.11.10 Trance
Mystical Journeys Through Strawberry Jam Diviner 07.11.10 Trance
Sandy T. tltate 07.11.10 Funk
Funk Giant fasteddie 07.11.10 Hard Rock
Unable (to let go) rough sketch crissew 07.11.10 Acoustic Rock
Deeper Than Blue (w/stevel) particledots 07.10.10 Indie Rock
No Telling What I Might Do featuring RAVENS alackbass 07.10.10 Blues (contemporary)
Death Before Dishonor abfkingsport 07.09.10 Rock
Irrational Exuberance magnatone 07.06.10 Pop Classical
A Kick in the Teeth fasteddie 07.01.10 Hard Rock
Heaven is Here SlimGirlFat 06.30.10 Dance-Club
Cul-de-sac tempie 06.29.10 Pop (Alternative)
Pathetic and Poetic abfkingsport 06.29.10 Rock
Try So Hard Skean 06.28.10 Ambient
SOMETHING IS WRONG w MR F-Monk SISTERS 06.27.10 Pop (Alternative)
Blues Jam @ MacJams w/Ryan, paddler, awigze, Jerry_Quinn, & ziti alackbass 06.27.10 Blues (contemporary)
Gun Shy Song w Sloparts Char 06.27.10 Rock
crushed ste 06.27.10 Pop (Alternative)
Girl on Fire RAVENS 06.22.10 Pop (Alternative)
Marital Bliss (w/RG Paddler) davisamerica 06.21.10 Art Rock
Screw! borisluxx 06.19.10 Dance-Club
why (when all i feel is pain) that80sboy 06.16.10 Pop (Alternative)
Manuelita, Crawl Back In Your Hole claypotts 06.13.10 Indie Rock
She Rains rok41 06.08.10 Downtempo
FEEL THE RUSH CIASM_ZENABI_ 06.02.10 Pop (Alternative)
Requiem rabittwhole 06.02.10 Ambient
Green Butter Girl (By the Monggz) cjdaley 06.01.10 Rock
Messing Around dadgarus 05.30.10 Pop (Alternative)
Messing Around dadgarus 05.30.10 Pop (Alternative)
blingland/Gaylen/Ktb tokai 05.29.10 Alternative Rock
Try - (withRavens) ShadowofNine 05.27.10 Ambient
Stab Me with cchaplin lengold 05.24.10 Other
Kullu Haze (w/Tokai) billykirsch 05.24.10 Alternative Rock
Wake Up Call Daugrin 05.21.10 Experimental
Black Widow Girl w/ Bitfeld & Char crissew 05.21.10 Rock
Peanut Buttah rok41 05.19.10 Funk
Playing A Role Sir Bass 05.15.10 Rock
6:27am kinane 05.15.10 Alternative Rock
The Old Thumper mikkinylund 05.14.10 Indie Rock
Muddin tempie 05.14.10 Pop (Alternative)
Infinite Summer (collab with scofugate) Relic67 05.13.10 Rock & Roll
New Sensation FrankAxtell 05.11.10 Progressive Rock
The Pianist (central theme) Symphony 101 Char 05.11.10 Progressive Rock
Caught in the rip (with Bud/Magnatone) TERRAPLANE 05.11.10 Other
Caught in the rip (with Bud/Magnatone) TERRAPLANE 05.11.10 Other
Strangely Familiar Loob 05.11.10 Progressive Rock
Tuba Sex mikkinylund 05.10.10 Pop (Alternative)
Mixture of Good and Bad DeputyDoofy 05.09.10 Other
All Turns To Mist II (Featuring Reggie_Pole) Char 05.08.10 Pop (Alternative)
Just Another Day lavalamp 05.08.10 Alternative Rock
Just Another Day lavalamp 05.08.10 Alternative Rock
Imagination of a Day Dreamer Vic Holman 05.07.10 Indie Rock
Heartbeat sloparts 05.06.10 Rock
Glacier Ride (Piano Solo) magnatone 05.05.10 Piano
Unseen Foundation (WIP) blindsidedpoets 05.02.10 Acoustic
Sunrise (Feat Shannonsongs) AndeeScott 05.02.10 Pop (Alternative)
Not Who I Ever Want to Be alackbass 05.02.10 Rock
The Pick Eating Guitar (featuring scofugate) fasteddie 05.02.10 Alternative Rock
F-F-F-F-F U-U-U-U-U MajesticTaylor 04.29.10 Pop (mainstream)
Napalm Sarcophagus borisluxx 04.29.10 Industrial
Airborne Symphony101 04.29.10 Ambient
That's Where I Cross Over michaelkoppenheffer 04.29.10 Folk-Rock
Let's Make Brownies Slashh! 04.24.10 Pop (Alternative)
Drive me wild egobandit 04.23.10 Alternative Rock
Sunset Girl lavalamp 04.23.10 Alternative Rock
Sunset Girl lavalamp 04.23.10 Alternative Rock
Dika Flows on a Trolley (ft. Carla J. Patterson) Go_Turtle_Go 04.22.10 Ambient
Rekindled Love claypotts 04.22.10 Rhythm and Blues
I'd do anything mikkinylund 04.22.10 Pop (Alternative)
Hang #1 kassia 04.22.10 Open Collaborations
218 Gary_Lester 04.21.10 Indie Rock
Oneironaut Kori Arashi 04.21.10 Progressive Rock
Starting Again Bethan_Mathis 04.18.10 Folk-Rock
last stand egobandit 04.17.10 Progressive Rock
Mr. Wrong Sirens_Headband 04.17.10 Jazz Fusion
Urban Hip Hop (Open collab) ShadowofNine 04.14.10 Hip Hop-Rap
The Birth Continues DirtyWinston 04.14.10 Rock
Conversations tonestones 04.13.10 Progressive Rock
Down This Old Dirt Road (Remix) lavalamp 04.13.10 Acoustic Rock
Love into which I fell hackneybloke 04.11.10 Jazz (vocal)
She's All Mine with Jerry Quinn alackbass 04.10.10 Blues (contemporary)
Concentric borisluxx 04.08.10 Dance-Club
80s metal tribute ultraman150 04.14.10 Rock (instrumental)
Zombie Dance dadgarus 04.04.10 Dance-Club
Sunday Walk Skean 04.04.10 Ambient
Sunday Walk Skean 04.04.10 Ambient
The Stars Above davidmurphy1899 04.04.10 Acoustic Rock
You And You Alone Moviz 04.04.10 Romantic
Cosmic Horizons Reinholt56 04.04.10 Ambient
no more (kashiwa alive 28/3/10) SuperStarSmith 04.04.10 Rock
Wasteland Gaylen75 04.03.10 Art Rock
Wasteland Gaylen75 04.03.10 Art Rock
Wild Snake(Club remix) dadgarus 04.02.10 Dance-Club
Me Motorbike and Me Sidecar (the B****y thing won't go) Jarvoid 04.01.10 Folk (contemporary)
3am Parichayaka 03.31.10 New Age
Planet Faraway (stolen from Cheeto) awigze 03.30.10 Hard Rock
Born To Love dadgarus 03.28.10 Indie Rock
Butterfly Effect borisluxx 03.28.10 Dance-Club
Baroque Vocal Phantasy Philos60 03.28.10 Baroque
Time is in time this time mikkinylund 03.27.10 Indie Rock
Attempt at Mahavishnu john Mclaughlin Style sentinal 03.27.10 Experimental
Conflagration w/magnatone bud 03.27.10 Open Collaborations
Nowhere Skean 03.27.10 Ambient
Melodic Cell/Arp Improv Jam Spiderland 03.27.10 Jazz Fusion
Sleep - w/ Len Gold paddler 03.26.10 Alternative Rock
I Wanna Testify tltate 03.25.10 Gospel
dont bring me down egobandit 03.25.10 Psychedelic
Olivers Birthday Hickling_Stan 03.25.10 Acoustic Rock
Mr Shameful MJReunionNAR 03.25.10 Pop (mainstream)
Secrets open colab speedonl 03.24.10 Open Collaborations
lonely nights segiperkasa 03.23.10 Rock (instrumental)
Grace (with JS Tolar) sister_savage 03.23.10 Rock
In Love MJReunionNAR 03.23.10 Acoustic
You're Done MacMufasa_dot_com 03.22.10 Pop (mainstream)
He Was Loved michaelkoppenheffer 03.22.10 Acoustic
baby got big - diviner/michael2/particledots large hadron collider mashup mix particledots 03.22.10 Easy Listening
Tapestry jazzman1 03.22.10 New Age
Uno/I Like The Way... (with Macaudion, SISTERS, ktb, and ziti) Ed Hannifin 03.22.10 Blues (contemporary)
bloodshot ste 03.21.10 Pop (Alternative)
bloodshot ste 03.21.10 Pop (Alternative)
forever and a day that80sboy 03.21.10 Pop (Alternative)
Fingers scofugate 03.20.10 Jazz (instrumental)
Fingers scofugate 03.20.10 Jazz (instrumental)
You're My Woman by Jerry Quinn alackbass 03.20.10 Jazz (vocal)
F-----gS--t Skean 03.19.10 Hard Rock
You Are My Temple feat. Angela Hope Zamzam 03.18.10 Soul
Make Ya Feel Bad Relic67 03.15.10 Rock
you can't have everything kingkenny 03.14.10 Alternative Rock
The Call from Within segiperkasa 03.13.10 Rock (instrumental)
The Hub of Life Moviz 03.13.10 Pop (mainstream)
Evelina Theoball 03.12.10 Pop (Alternative)
Rush Hour FrankAxtell 03.11.10 Jazz Fusion
Evil Will Not Win SCJohnson59 03.10.10 New Age
Requiem xavrockbeats1334 03.09.10 Electropop
share the same (with Bud) particledots 03.09.10 Indie Rock
The Antidote wheelehouse 03.08.10 Indie Rock
The Antidote wheelehouse 03.08.10 Indie Rock
100 Million and One EEFliess 03.08.10 Rock (instrumental)
Armed Robbery fasteddie 03.07.10 Hard Rock
Don't Let It Slip Away (w/thetiler-Bill Furner) Dadai.2 03.07.10 Folk-Rock
Avatar WharmtonRise 03.07.10 Downtempo
F*ck Segues, I Know What I'm Doin' shavingronaldscar 03.07.10 Ragtime
We Can Fly UberCoolKungfu 03.06.10 Dance-Club
Later than you think rayfieldstorm 03.06.10 Art Rock
Daddy's Boyfriend renecalvo 03.06.10 Punk-Grunge
Ellie May Jarvoid 03.05.10 Blues (traditional)
Confluence magnatone 03.05.10 Pop Classical
The Deep Blue Sky lavalamp 03.05.10 Alternative Rock
This Is A Song Slashh! 03.05.10 Rock & Roll
Hot, Like Laura Ballance PaddyNavinCaryatid 03.05.10 Indie Rock
A Picture Of You bevdogg 03.04.10 Acoustic
Living In The Moment jazzman1 03.03.10 New Age
Dark Winter Kenta_and_Linda_Rocks_together 03.03.10 Alternative Rock
Don't Say Goodbye jhmart1 03.03.10 Other
Daugerel Daugrin 03.02.10 Jazz Fusion
LOVES GONNA LIVE HERE (NEW MIX) tempie 03.02.10 Alternative Rock
Zophy's X-Ray Eyes (v2) PaddyNavinCaryatid 03.02.10 Alternative Rock
Sticky Note mudixon 03.02.10 Comedy-Satire-Parody
Not Good Enough 4 T61 Vaisvil 03.01.10 Progressive Rock
Life is a Terminal Disease michaelkoppenheffer 03.01.10 Acoustic
Gimme Some Lovin (Instrumental) Drew Kopr 03.01.10 Rhythm and Blues
Answer To My Prayer by Jerry Quinn alackbass 02.27.10 Ballad
comedy cycling ste 02.27.10 Pop (Alternative)
Original Sin (collab w/ woofer 3) johnwhitehead 02.25.10 Rock & Roll
Seafood Gumbo w/ AngelaHope TobinMueller 02.25.10 Jazz (vocal)
Last Words Boogie (Featuring scofugate) Relic67 02.22.10 Rock
A Little Crazy with cchaplin lengold 02.22.10 Other
It's a Good Night for a Fist Fight fasteddie 02.21.10 Hard Rock
JIGUMA Tribute - ReMx rtcooper 02.19.10 Folk-Rock
Music Sexy N Slow feat. Casino Zamzam 03.01.10 Rhythm and Blues
snowfall (w/Gaylen75) ktb 02.16.10 Rock
Raining Every Day lavalamp 02.14.10 Alternative Rock
whynot rabittwhole 02.08.10 Acoustic Rock
so long...v2 mybravedesign 02.08.10 Electropop
Robert's Tuxedo particledots 02.03.10 Jazz (instrumental)
I Can't Take It Easy dadgarus 02.03.10 Ballad
FINE LOVE SISTERS 02.03.10 Pop (mainstream)
Hurt Me (MJRF2010) Gaylen75 02.02.10 Alternative Rock
Falling MJRF 2010 BeccaJohnson 02.02.10 Alternative Rock
It's About Time dynamite_van_pipe 02.02.10 Pop (Alternative)
Once Again Bethan_Mathis 02.03.10 Folk (contemporary)
Ecstasy (Featuring Ramona Graham) Sir Bass 02.01.10 Techno
Anticipation LWinston 01.30.10 Ballad
Farewell Fair Weather Friend w/Alannah and Awigze scofugate 01.23.10 Smooth Jazz
Soleil pole 01.21.10 Alternative Rock
Interstellar and Expeditious Fioretti 01.20.10 Progressive Rock
Timeless Skean 01.19.10 Experimental
Earthquake (live) SuperStarSmith 01.19.10 Alternative Rock
Deseo DonStevens 01.08.10 Art Rock
Magic GB Slow Blues(2) (with dave_b) dave_b 01.08.10 Blues (contemporary)
Addiction borisluxx 01.06.10 Electropop
No More Stars michaelkoppenheffer 01.06.10 Folk-Rock
Fantasy Lady (ft Awigze) lengold 01.04.10 Alternative Rock
End of the Day packosmokes 01.04.10 Electropop
Alien Crosstown Traffic Outtaorbit 01.03.10 Rock
Everyone Knows That You're Coming (But It's Not Too Late To Turn Around) rsorensen 01.03.10 Alternative Rock
Prowlers Creed scofugate 01.03.10 Swing
Mephistophelian Grin Fioretti 01.02.10 Progressive Rock
Time Is A Lie chuck_t 01.02.10 Alternative Rock
Radio PaddyNavinCaryatid 01.02.10 Alternative Rock
Sometimes Alannah 01.01.10 Ballad
Feel it Comin' Moviz 01.01.10 Pop (Alternative)
Wyatt Not with awigze bud 01.01.10 Jazz (instrumental)
Melt Away (Demo) kepner 01.02.10 Alternative Rock
January lavalamp 01.01.10 Alternative Rock
Weather or Not - Jim Bouchard's Collab Boundless 12.31.09 Jazz Fusion
GATTAGC michaelkoppenheffer 12.29.09 Ballad
The Harley Drew Kopr 12.27.09 Trip Hop
(Shake That Thang)/Collab- Fasteddie / Scofugate scofugate 12.27.09 Rock
Psycho A Go Go (Remix) fasteddie 12.27.09 Alternative Rock
cupid went postal ted23 12.26.09 Alternative Rock
Hyvää joulua somoya 12.25.09 Punk-Grunge
Shabba egobandit 12.25.09 Psychedelic
This House Is Not For Sale HypnotiQ Sorcere 12.25.09 Indie Rock
The Suicide Handbook HypnotiQ Sorcere 12.23.09 Alternative Rock
The Rum Diary HypnotiQ Sorcere 12.23.09 Alternative Rock
O Holy Night magnatone 12.22.09 Piano
A Bell In The Valley/Smokey VW,s nice melody Skean 12.22.09 Holiday
SONG FOR ANNIE SISTERS 12.22.09 Ambient
walk on mybravedesign 12.21.09 Acoustic
Faded Celluloid Actress Vic Holman 12.20.09 Alternative Rock
Letters borisluxx 12.18.09 Dance-Club
Circle michael2 12.17.09 Shoegazer
Shine (MJ Collab) davisamerica 12.17.09 Ambient
Intangible Bud mix Char 12.13.09 Blues (contemporary)
Intangible Bud mix Char 12.13.09 Blues (contemporary)
Flying Carpet Park and Ride Diviner 12.13.09 Downtempo
Ordinary Girl rpmusic 12.13.09 Rock
The Phoenix magnatone 12.11.09 Pop Classical
THE FIRST TIME THAT I SAW YOU five_extra_arms 12.08.09 Electropop
12 after scofugate 12.07.09 Jazz (instrumental)
Intangible ( Char, a capella) PaulaMunk 12.04.09 Open Collaborations
the living wage davidmurphy1899 12.03.09 Folk (contemporary)
Take Me Higher borisluxx 12.01.09 Dance-Club
Rust Vic Holman 11.30.09 Alternative Rock
Piece of Peace - private collab Boundless 11.30.09 Inspirational (contemporary)
Voltaic borisluxx 11.29.09 Dance-Club
You're Breaking My Heart lavalamp 11.29.09 Alternative Rock
In Hell Relic67 11.27.09 Rock & Roll
Funky Jazzy Sonic Fusion Sir Bass 11.24.09 Jazz Fusion
Let's Go Trippy Skean 11.22.09 Dance-Club
Copperhead borisluxx 11.15.09 Dance-Club
Miranda's Rights (My Nose is Bleeding for You Baby) claypotts 11.14.09 Rhythm and Blues
Break Away (Mark Holbrook & Awigze) Char 11.14.09 Ballad
maizuru/Bud/Char tokai 11.12.09 Trip Hop
WinterSong Drew Kopr 11.09.09 Ambient
Street Living Sir Bass 11.08.09 Funk
Pop Beat Sir Bass 11.07.09 Pop (mainstream)
Yours and Mine Bob6stringer 11.07.09 Acoustic Rock
Where Are You Tonight UberCoolKungfu 11.06.09 Rock
Here to Hear - collab Boundless 11.04.09 Jazz (instrumental)
The Vampire's Lament carlajpatterson 11.01.09 Spoken Word-Poetry
farriage/Gaylen75 tokai 10.29.09 Heavy Metal
Ecstasy (House/Techno Mix) Sir Bass 10.25.09 House
stitchwork Tinasky 10.24.09 Electropop
No One will be looking in the places that you hide selters 10.24.09 Alternative Rock
I got a gal pablatone 10.24.09 Acoustic
One by One the Petals Fall Grathy 10.23.09 Jazz (vocal)
After Loving Anne (w/jiguma, SISTERS, Komrade K and Scott Carmichael) Ed Hannifin 10.23.09 Folk (contemporary)
One Time Sir Bass 10.18.09 Hip Hop-Rap
Googolplex Times Zero lavalamp 10.16.09 Alternative Rock
earthquake ste 10.16.09 Pop (Alternative)
Nellie G. Joanna 10.15.09 Jazz (vocal)
Rock Creek Park michaelkoppenheffer 10.14.09 Folk (contemporary)
Push and Shove mccannmp1 10.13.09 Pop (Alternative)
Symphonic Smackdown magnatone 10.12.09 Pop Orchestral
Temporal Tantrum (Sister Savage Mix) drakonis 10.11.09 Gothic Rock
End of a Season Sigmund 10.11.09 Cinematic Soundtrack
Take It I Love You Skean 10.10.09 Dance-Club
OFF YERSELF five_extra_arms 10.05.09 Alternative Rock
Honeymoon on Mars - MJ Space Race 2009 tonestones 10.05.09 Progressive Rock
Somewhere in No Man´s Land Wildcat 10.05.09 Trip Hop
Dodgy Doughnut lengold 10.05.09 Alternative Rock
Never Say Goodbye - Bond Theme Callenge borisluxx 10.04.09 Film Scoring
The Wind And The Seasons FrankAxtell 10.04.09 Jazz Fusion
uwin rabittwhole 10.04.09 Informational
uwin rabittwhole 10.04.09 Informational
Nuthin But A G Thang (fUnk Remix) w/Snoop Dog And Dr. Dre Sir Bass 10.04.09 Funk
Why So Mad (See Me) - Scofugate (feat. Alannah) Alannah 10.04.09 Downtempo
Dandelion Gaylen75 10.03.09 Alternative Rock
race/Chronologic/Ktb/Maxjs137 tokai 09.29.09 Heavy Metal
Pardonable Roadblock (Take My Hand) - feat. Alannah Alannah 09.28.09 Rock
The F-Bomb tempie 09.27.09 Pop (Alternative)
Wouldn't Change a Thing michaelkoppenheffer 09.25.09 Folk (contemporary)
My Creation (W/ Vic Holman) lavalamp 09.25.09 Alternative Rock
Just Shy of 15 Years claypotts 09.22.09 Ballad
Mayday The Orbiting 09.16.09 Pop (Alternative)
Do Any Thing w Skean Char 09.12.09 Electropop
Dream of You Sir Bass 09.06.09 Hip Hop-Rap
Aubergine Relic67 09.05.09 Pop (Alternative)
Knocking (Finally) Skean 09.04.09 Dance-Club
Coded Zenitude yohmar 09.04.09 Ambient
A Night With Feter feat'(Roxylee sloparts crissew johnwhitehead and Yamin AL Yamani ) Feter 09.03.09 Acoustic
I Settled for a Monster claypotts 09.03.09 Blues (contemporary)
Mood Swing yohmar 09.01.09 Jazz Fusion
Everything Is Wrong localman 08.31.09 Rock
on/off mybravedesign 08.30.09 Acoustic
Arctic Summer (Tundra Mix) borisluxx 08.30.09 Dance-Club
Vintage Years yohmar 08.30.09 Jazz Fusion
Booty Call Ft. Forensic, Sol, Hennessey, RA Bass (Remastered) Sir Bass 08.29.09 Hip Hop-Rap
Don't Get Lost Skean 08.28.09 Experimental
All the Way to China lavalamp 08.27.09 Acoustic Rock
My First Bicycle Ride MyFakeIdentity 08.26.09 Psychedelic
fat ninjas ste 08.26.09 Pop (Alternative)
Nocturne localman 08.25.09 Rock
Broken (Spitlogic) ktb 08.25.09 Hip Hop-Rap
There's No Tomorrow Moviz 08.25.09 Pop (mainstream)
for you v1.5 (WIP) mybravedesign 08.23.09 Alternative Rock
By The Sea DarkPlanet 08.26.09 Alternative Rock
Dancing Monkey Sax Outtaorbit 08.19.09 Art Rock
Don't Mean that Much to Me Slashh! 08.18.09 Pop (mainstream)
Power & Light (Kilowatt Mix) borisluxx 08.17.09 Dance-Club
BLOOD doc_elvis 08.13.09 Alternative Rock
a subtle way (to say i'm sorry) michael2 08.12.09 Indie Rock
no smoke ste 08.12.09 Pop (Alternative)
That kaishin 08.11.09 Alternative Rock
I Will Never Know lavalamp 08.08.09 Alternative Rock
tequila and soda ste 08.05.09 Pop (Alternative)
A Beggar I Will Stay daibhre 08.03.09 Celtic
need beer ste 08.03.09 Pop (Alternative)
All In Your Hands vegetal777 08.02.09 Indie Rock
22 Bars Feat. Spitlogic Broken lyrics Sir Bass 08.02.09 Hip Hop-Rap
lanarama/Ktb/Thoddi/Ramona tokai 08.02.09 Art Rock
FIGHT FOR YOUR LOVE SISTERS 08.02.09 Pop (mainstream)
Little American Girl - Little French Demon Girl particledots 08.01.09 Other
Explorations FrankAxtell 07.30.09 Jazz Fusion
The Journey Boundless 07.29.09 Jazz (instrumental)
Feter's O Babe 2009 [MedicineShowBand] davisamerica 07.29.09 Folk-Rock
Luminescence borisluxx 07.28.09 Trance
Premonition Vince_Horan 07.28.09 Acoustic
Premonition Vince_Horan 07.28.09 Acoustic
Graf Zeppelin Ren-Tin-10 07.27.09 Progressive Rock
chi/Ktb tokai 07.27.09 Art Rock
The End (Ramonaji Collab) Drew Kopr 07.27.09 Alternative Rock
Blue When I Think of You henrytux 07.26.09 Ballad
If It Rains All Night (w/ziti and jiguma) Ed Hannifin 07.26.09 Folk-Rock
You Talk Too Much rsorensen 07.26.09 Indie Rock
Goldenly Slippered Jarvoid 07.26.09 Bluegrass
False Start (before the coffee kicks in) - song 18 DdBob 07.26.09 Film Scoring
Oh Summer chestnut 07.26.09 Acoustic
Not to Jazz ShadowofNine 07.25.09 Jazz (instrumental)
Andy Riktur Sir Bass 07.25.09 Hip Hop-Rap
Black Ice Vic Holman 07.24.09 Alternative Rock
My Hope Alannah 07.24.09 Ballad
Sulphur Rain _spoon_ 07.23.09 Techno
NO LOOKING BACK buryya 07.22.09 Soul
Abracadabra lengold 07.20.09 Alternative Rock
DOing My Thang Feat. Sir RA Bass Sir Bass 07.19.09 Hip Hop-Rap
Okey Dokey Smokes (Undone) with 12Parsecs PaddyNavinCaryatid 07.19.09 Indie Rock
See To It (with Roxylee) diamondvalley 07.19.09 Gospel
Take a little trip and forget all about it mikkinylund 07.17.09 Indie Rock
Burn Down Blues(Bob Rodgers) Feter 07.16.09 Blues (contemporary)
Let It Go Vic Holman 07.15.09 Indie Rock
A Woman Like You lavalamp 07.15.09 Acoustic
Life's a Rollercoaster timothy devine 07.12.09 Acoustic Rock
Biskops Arnö Chapter One mikkinylund 07.12.09 Pop (Alternative)
Walk with You chronologic 07.11.09 Rock
Ribbons Of Light borisluxx 07.11.09 Trance
no more ste 07.11.09 Pop (Alternative)
Lost (bud cover) lavalamp 07.10.09 Psychedelic
Lost (bud cover) lavalamp 07.10.09 Psychedelic
sit down [kassia Band] davisamerica 07.09.09 Other
Blue Note MT sloparts 07.06.09 Jazz (instrumental)
A Different Shade Of Moonlight mowguy3 07.05.09 Acoustic
Trust rsorensen 07.05.09 Indie Rock
Not Enough SlimGirlFat 07.05.09 Pop (mainstream)
Aura borisluxx 07.05.09 Dance-Club
You breathe God featuring Michael2 (Final Mix) Go_Turtle_Go 07.05.09 Trip Hop
boredom blues (wDadai.2 PickQuickRecords yamenyamani) Feter 06.30.09 Blues (contemporary)
Ember Remembered - Drakonis Open Collab Boundless 06.29.09 Jazz Fusion
srepsihwavonknomelcitrap btransue 06.26.09 Other
Peace Within gail60 06.23.09 Piano
Butter Nut Squash Outtaorbit 06.23.09 Alternative Rock
Emptyville PaddyNavinCaryatid 06.23.09 Alternative Rock
My Love Is Your Harmony-Abstract Mix abstractreality 06.22.09 House
Not Today rsorensen 06.21.09 Indie Rock
The World Will Call It a Twin (Feter Cover) Lennon714 06.20.09 Alternative Rock
My Love is Your Harmony onesweetworld 06.19.09 A Cappella
Save Me (wBob Rodgers,yamenyamani) Feter 06.19.09 Blues (contemporary)
Cherryvale Relic67 06.19.09 Folk-Rock
The Other Man daibhre 06.18.09 Country-Western
B&B mer 06.18.09 Dance-Club
Time to Let it Go btransue 06.17.09 Blues (contemporary)
The Vampire's Kiss Alannah 06.17.09 Other
Suite in E 69 - the Zoom series Boundless 06.15.09 Jazz (instrumental)
Nasty Little Things [ramonaji/awigze mix] davisamerica 06.15.09 Trip Hop
Didn't See It Coming claypotts 06.15.09 Rock
Nobody Knows (acoustic) w/michael2 rsorensen 06.14.09 Indie Rock
East Blues sloparts 06.14.09 Blues (contemporary)
Everything I Learned About Life I Learned From My Video Games (w/ Elevator Funk, AJ and Shannon) awigze 06.13.09 Comedy-Satire-Parody
The Wind is Lost lavalamp 06.13.09 Alternative Rock
MagnaFlight magnatone 06.12.09 Pop Orchestral
An Undiscovered Hero sloparts 06.11.09 Country-Western
Dark Matter borisluxx 06.11.09 Dance-Club
Tis So Sweet to Trust in Jesus (Pink Dulcimer Version) Ren-Tin-10 06.11.09 Gospel
Give me Your Confidence (Feter Cover) yrp 06.10.09 Art Rock
Test Soul DWH 06.10.09 Blues (contemporary)
Excite me smokey bacon jnr 06.10.09 Downtempo
Oxygen-(Can't Live Without It Mix) borisluxx 06.09.09 Dance-Club
Gently Boundless 06.07.09 Folk (contemporary)
A Big Melancholy Drew Kopr 06.07.09 Acoustic
Into your Arms (Roxylee,Relic67,kappy) Feter 06.07.09 Acoustic
Twirl (multi collab) ktb 06.03.09 Rock
Snozz'en (Cronik Mix) Schello 06.02.09 Other
clint's song/remix [gail60] davisamerica 06.01.09 Ballad
Valentine claypotts 06.01.09 Blues (contemporary)
Come Fly With Me (Angels Will Fly) Alannah 05.31.09 Psychedelic
WiLd cHiLd Sir Bass 05.30.09 Rock
Under Reflection - by VicDiesel - Collab Boundless 05.29.09 Downtempo
Feed Me (particular remix) particledots 06.01.09 Downtempo
The Day My Woman Died claypotts 05.29.09 Blues (traditional)
Dimensia Blues - by Filmscorz - Collab Boundless 05.27.09 Blues (contemporary)
Double-Crossed claypotts 05.28.09 Rhythm and Blues
I Hunger for the Thorn ( w/ Char) Damroze 05.26.09 Other
River at Night (Jonk/Tokai) ktb 05.25.09 Ambient
Phase Dance AcetyleneJukebox 05.24.09 Latin Jazz
Mr Tribuzio egobandit 05.24.09 Psychedelic
Cetacean NickFury 05.24.09 Art Rock
Chutney - the India Jam series Boundless 05.23.09 Ethnic-International
Better than I Am chronologic 05.23.09 Folk-Rock
FETER Blues Alannah 05.22.09 Blues (traditional)
Over the Sea slumbering 05.21.09 Pop (Alternative)
Another Thorn lavalamp 05.21.09 Acoustic
Remember - by Ramonaji - Collab Boundless 05.20.09 House
A Cut Finger Emerson L 05.19.09 Funk
I`m Gone I.G.M. 05.19.09 Jazz (vocal)
The Repo Man tireiron 05.19.09 Blues (contemporary)
What Did You See ShadowofNine 05.18.09 Other
0x9679A36+ LegOfLamb 05.17.09 Other
Unconfidence Tricks stevel 05.17.09 Acoustic
A Tambourine Man Rollin' in the Wind mikkinylund 05.17.09 Pop (Alternative)
diamonds in the coal/Echoroom/KTB tokai 05.17.09 Alternative Rock
Soaring at Torrey (mvh3591 master) Sigmund 05.17.09 Cinematic Soundtrack
enough egobandit 05.15.09 Rock & Roll
Feed Me (w/Char) bud 05.14.09 Alternative Rock
sheep2/Reggie Pole tokai 05.13.09 Art Rock
An Exercise In Understanding SickPuppy 05.11.09 Electropop
Look up to the Sky SlimGirlFat 05.08.09 Dance-Club
lifestyles of the dead(wYRP) egobandit 05.05.09 Psychedelic
iphone busking davisamerica 05.04.09 Experimental
I Would Know you Anywhere Outtaorbit 05.04.09 Alternative Rock
Sweet Smell Of Success DeputyDoofy 05.04.09 Electropop
iam/Ramona tokai 05.03.09 Heavy Metal
The Sinner (instrumental version) borisluxx 04.27.09 Ambient
Brenda Govenda lengold 04.27.09 Alternative Rock
Foundation Sir Bass 04.25.09 Reggae
Little Buddha davisamerica 04.23.09 Experimental
Free (Live to Tape) blindsidedpoets 04.20.09 Acoustic
Bamboos Boundless 04.20.09 Jazz (instrumental)
Let's Go Babe ( bug67,tireiron,Roxylee) Feter 04.17.09 Rock
Time Marches On lavalamp 04.15.09 Alternative Rock
Gv ge yu i (Love) jazzman1 04.14.09 Jazz (instrumental)
Hometown Heros Juddly 04.11.09 Alternative Rock
Love's Out of Hand w musichead Char 04.10.09 Rock
Visceral Concept borisluxx 04.10.09 Trance
Classical Smackdown magnatone 04.08.09 Piano
Timewave Zero JungleMovement 04.02.09 Trance
Chase The Sun anomalous 03.29.09 Alternative Rock
Impossible borisluxx 03.27.09 Trance
Soft Embers ShadowofNine 03.27.09 Ambient
Glacial Age (Reprise) Bob6stringer 03.27.09 Rock (instrumental)
Glide Home garodaro 03.19.09 Indie Rock
Ravaged Heart (Live to Tape) blindsidedpoets 03.20.09 Acoustic
dance egobandit 03.17.09 Alternative Rock
Ambition mitra 03.16.09 Pop (mainstream)
The Drifter lavalamp 03.14.09 Alternative Rock
Cryosphere borisluxx 03.09.09 Experimental
(It Couldn't Happen To) A Nicer Guy dolby 03.07.09 Alternative Rock
LEAVE YOUR MIND AT THE DOOR SISTERS 03.04.09 Jazz (vocal)
The Song That Never Was - Imogen Heap Remix scaustrita 02.22.09 Pop (mainstream)
Russian Revolver borisluxx 02.20.09 Trance
Sex lengold 02.20.09 Alternative Rock
Goin' Away SmokeyVW 02.19.09 Rock
Awareness (MJRF) Alannah 02.14.09 Folk-Rock
World That Breathed (MJRF) The Orbiting 02.14.09 Pop (Alternative)
Just As It Is futzpucker 02.14.09 Jazz (instrumental)
Variations on a theme by Bach – Variations no. 18-20 and Aria da capo gisli 02.12.09 Baroque
Sho Me Luv BeniBarca 02.12.09 Electropop
Happy Birthday MacJams (featuring Jon Anderson of YES; and Tobin Mueller) Alimar 02.09.09 Progressive Rock
Favorite MacJammers (78)
Fans (107)
Music Background I have no music background, only a music foreground. I'm told my great grandparents were musicians of some reputation in New Zealand, long before I was born. Some blame them for my sudden and inexplicable obsession with it. I blame Apple!
Music Skills
Music Hardware
Music Software
Keywords